createdAt,value
2018-11-04T00:00:27.350Z,8.50
2018-11-04T00:01:27.395Z,8.46
2018-11-04T00:02:27.311Z,8.42
2018-11-04T00:03:27.310Z,8.39
2018-11-04T00:04:27.290Z,8.31
2018-11-04T00:05:27.294Z,8.29
2018-11-04T00:06:27.272Z,8.27
2018-11-04T00:07:27.259Z,8.21
2018-11-04T00:08:27.250Z,8.31
2018-11-04T00:09:27.242Z,8.31
2018-11-04T00:10:27.240Z,8.29
2018-11-04T00:11:27.215Z,8.28
2018-11-04T00:12:27.206Z,8.27
2018-11-04T00:13:27.195Z,8.31
2018-11-04T00:14:27.185Z,8.29
2018-11-04T00:15:27.234Z,8.29
2018-11-04T00:16:27.166Z,8.24
2018-11-04T00:17:27.153Z,8.18
2018-11-04T00:18:27.144Z,8.21
2018-11-04T00:19:27.143Z,8.13
2018-11-04T00:20:27.139Z,8.13
2018-11-04T00:21:27.135Z,8.06
2018-11-04T00:22:27.143Z,8.12
2018-11-04T00:23:27.090Z,8.21
2018-11-04T00:24:27.082Z,8.12
2018-11-04T00:25:27.085Z,8.06
2018-11-04T00:26:27.063Z,8.20
2018-11-04T00:27:27.077Z,8.24
2018-11-04T00:28:27.056Z,8.22
2018-11-04T00:29:27.030Z,8.34
2018-11-04T00:30:27.033Z,8.32
2018-11-04T00:31:27.005Z,8.29
2018-11-04T00:32:26.994Z,8.34
2018-11-04T00:33:27.014Z,8.28
2018-11-04T00:34:26.973Z,8.34
2018-11-04T00:35:26.978Z,8.36
2018-11-04T00:36:26.954Z,8.31
2018-11-04T00:37:26.940Z,8.32
2018-11-04T00:38:26.929Z,8.37
2018-11-04T00:39:26.955Z,8.39
2018-11-04T00:40:26.925Z,8.37
2018-11-04T00:41:26.898Z,8.40
2018-11-04T00:42:26.886Z,8.45
2018-11-04T00:43:26.875Z,8.58
2018-11-04T00:44:26.865Z,8.61
2018-11-04T00:45:27.006Z,8.52
2018-11-04T00:46:26.844Z,8.58
2018-11-04T00:47:26.838Z,8.61
2018-11-04T00:48:26.888Z,8.60
2018-11-04T00:49:26.818Z,8.57
2018-11-04T00:50:26.821Z,8.63
2018-11-04T00:51:26.813Z,8.63
2018-11-04T00:52:26.797Z,8.76
2018-11-04T00:53:26.800Z,8.71
2018-11-04T00:54:26.761Z,8.75
2018-11-04T00:55:26.762Z,8.86
2018-11-04T00:56:26.742Z,8.80
2018-11-04T00:57:26.730Z,8.88
2018-11-04T00:58:26.715Z,8.86
2018-11-04T00:59:26.773Z,8.82
2018-11-04T01:00:26.712Z,8.82
2018-11-04T01:01:26.732Z,8.73
2018-11-04T01:02:26.690Z,8.76
2018-11-04T01:03:26.662Z,8.78
2018-11-04T01:04:26.653Z,8.65
2018-11-04T01:05:26.702Z,8.67
2018-11-04T01:06:26.630Z,8.68
2018-11-04T01:07:26.672Z,8.68
2018-11-04T01:08:26.613Z,8.76
2018-11-04T01:09:26.598Z,8.82
2018-11-04T01:10:26.601Z,8.88
2018-11-04T01:11:26.608Z,8.88
2018-11-04T01:12:26.567Z,8.82
2018-11-04T01:13:26.560Z,8.86
2018-11-04T01:14:26.545Z,8.86
2018-11-04T01:15:26.552Z,8.85
2018-11-04T01:16:26.524Z,8.86
2018-11-04T01:17:26.545Z,8.86
2018-11-04T01:18:26.502Z,8.76
2018-11-04T01:19:26.493Z,8.80
2018-11-04T01:20:26.481Z,8.78
2018-11-04T01:21:26.483Z,8.86
2018-11-04T01:22:26.461Z,8.79
2018-11-04T01:23:26.487Z,8.73
2018-11-04T01:24:26.505Z,8.70
2018-11-04T01:25:26.431Z,8.68
2018-11-04T01:26:26.430Z,8.71
2018-11-04T01:27:26.413Z,8.58
2018-11-04T01:28:26.394Z,8.57
2018-11-04T01:29:26.420Z,8.63
2018-11-04T01:30:26.583Z,8.52
2018-11-04T01:31:26.379Z,8.60
2018-11-04T01:32:26.352Z,8.63
2018-11-04T01:33:26.350Z,8.55
2018-11-04T01:34:26.332Z,8.52
2018-11-04T01:35:26.436Z,8.46
2018-11-04T01:36:26.325Z,8.47
2018-11-04T01:37:26.298Z,8.47
2018-11-04T01:38:26.287Z,8.27
2018-11-04T01:39:26.278Z,8.29
2018-11-04T01:40:26.266Z,8.28
2018-11-04T01:41:26.316Z,8.34
2018-11-04T01:42:26.247Z,8.34
2018-11-04T01:43:26.239Z,8.27
2018-11-04T01:44:26.225Z,8.28
2018-11-04T01:45:26.215Z,8.32
2018-11-04T01:46:26.217Z,8.29
2018-11-04T01:47:26.240Z,8.20
2018-11-04T01:48:26.185Z,8.12
2018-11-04T01:49:26.170Z,8.12
2018-11-04T01:50:26.161Z,8.14
2018-11-04T01:51:26.164Z,7.99
2018-11-04T01:52:26.141Z,8.02
2018-11-04T01:53:26.170Z,7.95
2018-11-04T01:54:26.120Z,7.95
2018-11-04T01:55:26.109Z,7.94
2018-11-04T01:56:26.111Z,7.94
2018-11-04T01:57:26.086Z,7.88
2018-11-04T01:58:26.077Z,7.84
2018-11-04T01:59:26.107Z,7.77
2018-11-04T02:00:26.054Z,7.73
2018-11-04T02:01:26.059Z,7.66
2018-11-04T02:02:26.037Z,7.57
2018-11-04T02:03:26.030Z,7.54
2018-11-04T02:04:26.014Z,7.50
2018-11-04T02:05:26.054Z,7.50
2018-11-04T02:06:26.006Z,7.37
2018-11-04T02:07:25.981Z,7.32
2018-11-04T02:08:25.969Z,7.27
2018-11-04T02:09:25.958Z,7.26
2018-11-04T02:10:25.949Z,7.29
2018-11-04T02:11:26.015Z,7.21
2018-11-04T02:12:25.927Z,7.19
2018-11-04T02:13:25.917Z,7.12
2018-11-04T02:14:25.905Z,6.99
2018-11-04T02:15:25.894Z,6.94
2018-11-04T02:16:25.897Z,6.94
2018-11-04T02:17:25.904Z,6.93
2018-11-04T02:18:25.863Z,6.99
2018-11-04T02:19:25.853Z,6.96
2018-11-04T02:20:25.840Z,6.94
2018-11-04T02:21:25.852Z,6.93
2018-11-04T02:22:25.819Z,6.73
2018-11-04T02:23:25.832Z,6.75
2018-11-04T02:24:25.822Z,6.65
2018-11-04T02:25:25.789Z,6.55
2018-11-04T02:26:25.793Z,6.53
2018-11-04T02:27:25.768Z,6.45
2018-11-04T02:28:25.760Z,6.50
2018-11-04T02:29:25.744Z,6.54
2018-11-04T02:30:25.756Z,6.61
2018-11-04T02:31:25.738Z,6.48
2018-11-04T02:32:25.713Z,6.51
2018-11-04T02:33:25.707Z,6.45
2018-11-04T02:34:25.694Z,6.50
2018-11-04T02:35:25.681Z,6.42
2018-11-04T02:36:25.717Z,6.39
2018-11-04T02:37:25.670Z,6.21
2018-11-04T02:38:25.649Z,6.20
2018-11-04T02:39:25.638Z,6.17
2018-11-04T02:40:25.629Z,5.99
2018-11-04T02:41:25.630Z,5.96
2018-11-04T02:42:25.620Z,6.19
2018-11-04T02:43:25.596Z,6.17
2018-11-04T02:44:25.589Z,6.08
2018-11-04T02:45:25.575Z,6.08
2018-11-04T02:46:25.581Z,5.87
2018-11-04T02:47:25.555Z,5.87
2018-11-04T02:48:25.581Z,5.80
2018-11-04T02:49:25.532Z,5.81
2018-11-04T02:50:25.522Z,5.81
2018-11-04T02:51:25.526Z,5.80
2018-11-04T02:52:25.504Z,5.78
2018-11-04T02:53:25.492Z,5.70
2018-11-04T02:54:25.532Z,5.67
2018-11-04T02:55:25.470Z,5.67
2018-11-04T02:56:25.475Z,5.63
2018-11-04T02:57:25.450Z,5.56
2018-11-04T02:58:25.439Z,5.51
2018-11-04T02:59:25.426Z,5.47
2018-11-04T03:00:25.464Z,5.44
2018-11-04T03:01:25.418Z,5.38
2018-11-04T03:02:25.399Z,5.38
2018-11-04T03:03:25.386Z,5.38
2018-11-04T03:04:25.373Z,5.30
2018-11-04T03:05:25.364Z,5.40
2018-11-04T03:06:25.412Z,5.52
2018-11-04T03:07:25.340Z,5.75
2018-11-04T03:08:25.333Z,5.81
2018-11-04T03:09:25.320Z,5.88
2018-11-04T03:10:25.308Z,6.01
2018-11-04T03:11:25.311Z,6.32
2018-11-04T03:12:25.322Z,6.54
2018-11-04T03:13:25.278Z,6.61
2018-11-04T03:14:25.268Z,6.71
2018-11-04T03:15:25.258Z,6.83
2018-11-04T03:16:25.260Z,6.82
2018-11-04T03:17:25.234Z,6.83
2018-11-04T03:18:25.251Z,6.90
2018-11-04T03:19:25.223Z,7.05
2018-11-04T03:20:25.204Z,7.07
2018-11-04T03:21:25.206Z,7.01
2018-11-04T03:22:25.184Z,7.04
2018-11-04T03:23:25.174Z,7.00
2018-11-04T03:24:25.182Z,6.94
2018-11-04T03:25:25.150Z,7.11
2018-11-04T03:26:25.152Z,7.15
2018-11-04T03:27:25.129Z,7.11
2018-11-04T03:28:25.117Z,7.16
2018-11-04T03:29:25.108Z,7.24
2018-11-04T03:30:25.132Z,7.12
2018-11-04T03:31:25.100Z,6.99
2018-11-04T03:32:25.075Z,6.82
2018-11-04T03:33:25.064Z,6.78
2018-11-04T03:34:25.057Z,6.60
2018-11-04T03:35:25.047Z,6.53
2018-11-04T03:36:25.081Z,6.30
2018-11-04T03:37:25.024Z,6.30
2018-11-04T03:38:25.015Z,6.27
2018-11-04T03:39:25.002Z,6.17
2018-11-04T03:40:24.991Z,6.24
2018-11-04T03:41:24.996Z,6.11
2018-11-04T03:42:25.015Z,6.03
2018-11-04T03:43:24.958Z,6.13
2018-11-04T03:44:24.951Z,6.14
2018-11-04T03:45:24.937Z,6.46
2018-11-04T03:46:24.942Z,6.51
2018-11-04T03:47:24.914Z,6.63
2018-11-04T03:48:24.955Z,6.48
2018-11-04T03:49:24.895Z,6.36
2018-11-04T03:50:24.882Z,6.25
2018-11-04T03:51:24.886Z,6.21
2018-11-04T03:52:24.863Z,6.16
2018-11-04T03:53:24.853Z,5.98
2018-11-04T03:54:24.907Z,6.13
2018-11-04T03:55:24.829Z,6.20
2018-11-04T03:56:24.837Z,6.19
2018-11-04T03:57:24.808Z,6.13
2018-11-04T03:58:24.796Z,6.08
2018-11-04T03:59:24.787Z,5.98
2018-11-04T04:00:24.834Z,5.90
2018-11-04T04:01:24.785Z,5.95
2018-11-04T04:02:24.759Z,6.10
2018-11-04T04:03:24.748Z,6.43
2018-11-04T04:04:24.739Z,6.35
2018-11-04T04:05:24.723Z,6.35
2018-11-04T04:06:24.766Z,6.20
2018-11-04T04:07:24.701Z,5.99
2018-11-04T04:08:24.726Z,5.90
2018-11-04T04:09:24.682Z,5.74
2018-11-04T04:10:24.668Z,5.67
2018-11-04T04:11:24.680Z,5.45
2018-11-04T04:12:24.698Z,5.42
2018-11-04T04:13:24.637Z,5.29
2018-11-04T04:14:24.627Z,5.14
2018-11-04T04:15:24.616Z,4.97
2018-11-04T04:16:24.620Z,4.93
2018-11-04T04:17:24.593Z,4.87
2018-11-04T04:18:24.623Z,4.75
2018-11-04T04:19:24.574Z,4.67
2018-11-04T04:20:24.563Z,4.62
2018-11-04T04:21:24.564Z,4.68
2018-11-04T04:22:24.540Z,4.57
2018-11-04T04:23:24.536Z,4.50
2018-11-04T04:24:24.570Z,4.47
2018-11-04T04:25:24.513Z,4.47
2018-11-04T04:26:24.519Z,4.34
2018-11-04T04:27:24.486Z,4.24
2018-11-04T04:28:24.480Z,4.13
2018-11-04T04:29:24.464Z,4.10
2018-11-04T04:30:24.496Z,4.08
2018-11-04T04:31:24.456Z,4.16
2018-11-04T04:32:24.440Z,4.06
2018-11-04T04:33:24.422Z,3.95
2018-11-04T04:34:24.416Z,3.99
2018-11-04T04:35:24.402Z,4.02
2018-11-04T04:36:24.456Z,4.07
2018-11-04T04:37:24.381Z,3.93
2018-11-04T04:38:24.369Z,3.96
2018-11-04T04:39:24.364Z,3.95
2018-11-04T04:40:24.349Z,4.04
2018-11-04T04:41:24.356Z,3.90
2018-11-04T04:42:24.351Z,3.90
2018-11-04T04:43:24.318Z,3.89
2018-11-04T04:44:24.306Z,3.90
2018-11-04T04:45:24.296Z,3.80
2018-11-04T04:46:24.301Z,3.82
2018-11-04T04:47:24.279Z,3.80
2018-11-04T04:48:24.286Z,3.81
2018-11-04T04:49:24.264Z,3.81
2018-11-04T04:50:24.244Z,3.81
2018-11-04T04:51:24.267Z,3.82
2018-11-04T04:52:24.223Z,3.78
2018-11-04T04:53:24.212Z,3.77
2018-11-04T04:54:24.244Z,3.75
2018-11-04T04:55:24.192Z,3.77
2018-11-04T04:56:24.181Z,3.67
2018-11-04T04:57:24.183Z,3.62
2018-11-04T04:58:24.168Z,3.64
2018-11-04T04:59:24.152Z,3.75
2018-11-04T05:00:24.174Z,3.77
2018-11-04T05:01:24.135Z,3.68
2018-11-04T05:02:24.133Z,3.54
2018-11-04T05:03:24.112Z,3.57
2018-11-04T05:04:24.097Z,3.50
2018-11-04T05:05:24.090Z,3.39
2018-11-04T05:06:24.123Z,3.57
2018-11-04T05:07:24.079Z,3.93
2018-11-04T05:08:24.055Z,4.14
2018-11-04T05:09:24.046Z,4.24
2018-11-04T05:10:24.037Z,4.21
2018-11-04T05:11:24.029Z,4.11
2018-11-04T05:12:24.068Z,4.06
2018-11-04T05:13:24.010Z,4.00
2018-11-04T05:14:24.000Z,3.82
2018-11-04T05:15:23.989Z,3.96
2018-11-04T05:16:23.970Z,3.81
2018-11-04T05:17:23.978Z,3.88
2018-11-04T05:18:23.996Z,3.70
2018-11-04T05:19:23.947Z,3.67
2018-11-04T05:20:23.933Z,3.52
2018-11-04T05:21:23.919Z,3.53
2018-11-04T05:22:23.922Z,3.53
2018-11-04T05:23:23.897Z,3.53
2018-11-04T05:24:23.939Z,3.50
2018-11-04T05:25:23.878Z,3.42
2018-11-04T05:26:23.865Z,3.37
2018-11-04T05:27:23.875Z,3.39
2018-11-04T05:28:23.845Z,3.25
2018-11-04T05:29:23.840Z,3.20
2018-11-04T05:30:23.857Z,3.23
2018-11-04T05:31:23.817Z,3.17
2018-11-04T05:32:23.816Z,3.08
2018-11-04T05:33:23.815Z,3.07
2018-11-04T05:34:23.782Z,3.07
2018-11-04T05:35:23.777Z,3.08
2018-11-04T05:36:23.791Z,3.12
2018-11-04T05:37:23.765Z,3.12
2018-11-04T05:38:23.809Z,3.16
2018-11-04T05:39:23.734Z,3.20
2018-11-04T05:40:23.719Z,3.33
2018-11-04T05:41:23.708Z,3.28
2018-11-04T05:42:23.763Z,3.31
2018-11-04T05:43:23.687Z,3.56
2018-11-04T05:44:23.675Z,3.78
2018-11-04T05:45:23.669Z,3.80
2018-11-04T05:46:23.656Z,3.78
2018-11-04T05:47:23.661Z,3.95
2018-11-04T05:48:23.683Z,3.93
2018-11-04T05:49:23.626Z,4.18
2018-11-04T05:50:23.612Z,4.36
2018-11-04T05:51:23.639Z,4.46
2018-11-04T05:52:23.613Z,4.61
2018-11-04T05:53:23.582Z,4.57
2018-11-04T05:54:23.613Z,4.49
2018-11-04T05:55:23.561Z,4.47
2018-11-04T05:56:23.549Z,4.36
2018-11-04T05:57:23.553Z,4.35
2018-11-04T05:58:23.529Z,4.29
2018-11-04T05:59:23.570Z,4.64
2018-11-04T06:00:23.510Z,5.06
2018-11-04T06:01:23.500Z,5.30
2018-11-04T06:02:23.501Z,5.49
2018-11-04T06:03:23.479Z,5.41
2018-11-04T06:04:23.468Z,5.51
2018-11-04T06:05:23.488Z,5.30
2018-11-04T06:06:23.446Z,5.32
2018-11-04T06:07:23.451Z,5.06
2018-11-04T06:08:23.423Z,4.91
2018-11-04T06:09:23.423Z,4.79
2018-11-04T06:10:23.402Z,4.71
2018-11-04T06:11:23.435Z,4.61
2018-11-04T06:12:23.400Z,4.53
2018-11-04T06:13:23.371Z,4.31
2018-11-04T06:14:23.370Z,4.35
2018-11-04T06:15:23.351Z,4.34
2018-11-04T06:16:23.338Z,4.57
2018-11-04T06:17:23.394Z,4.90
2018-11-04T06:18:23.317Z,5.42
2018-11-04T06:19:23.327Z,5.66
2018-11-04T06:20:23.304Z,5.80
2018-11-04T06:21:23.286Z,5.90
2018-11-04T06:22:23.291Z,5.90
2018-11-04T06:23:23.310Z,5.77
2018-11-04T06:24:23.253Z,5.95
2018-11-04T06:25:23.243Z,5.95
2018-11-04T06:26:23.233Z,5.92
2018-11-04T06:27:23.235Z,5.81
2018-11-04T06:28:23.212Z,5.98
2018-11-04T06:29:23.237Z,5.92
2018-11-04T06:30:23.190Z,5.92
2018-11-04T06:31:23.179Z,5.85
2018-11-04T06:32:23.185Z,6.02
2018-11-04T06:33:23.158Z,6.05
2018-11-04T06:34:23.217Z,6.08
2018-11-04T06:35:23.175Z,6.06
2018-11-04T06:36:23.131Z,5.98
2018-11-04T06:37:23.131Z,6.06
2018-11-04T06:38:23.109Z,5.92
2018-11-04T06:39:23.111Z,5.99
2018-11-04T06:40:23.085Z,5.75
2018-11-04T06:41:23.115Z,5.84
2018-11-04T06:42:23.078Z,5.92
2018-11-04T06:43:23.054Z,6.01
2018-11-04T06:44:23.043Z,6.10
2018-11-04T06:45:23.034Z,6.17
2018-11-04T06:46:23.021Z,6.21
2018-11-04T06:47:23.122Z,6.19
2018-11-04T06:48:23.004Z,6.25
2018-11-04T06:49:22.993Z,6.19
2018-11-04T06:50:22.981Z,5.99
2018-11-04T06:51:22.969Z,5.99
2018-11-04T06:52:22.974Z,5.93
2018-11-04T06:53:22.975Z,5.78
2018-11-04T06:54:22.938Z,5.77
2018-11-04T06:55:22.930Z,5.95
2018-11-04T06:56:22.919Z,5.98
2018-11-04T06:57:22.919Z,6.08
2018-11-04T06:58:22.895Z,6.19
2018-11-04T06:59:22.940Z,6.25
2018-11-04T07:00:22.875Z,6.19
2018-11-04T07:01:22.864Z,6.27
2018-11-04T07:02:22.867Z,6.33
2018-11-04T07:03:22.847Z,6.30
2018-11-04T07:04:22.843Z,6.38
2018-11-04T07:05:22.848Z,6.45
2018-11-04T07:06:22.820Z,6.45
2018-11-04T07:07:22.815Z,6.40
2018-11-04T07:08:22.792Z,6.35
2018-11-04T07:09:22.782Z,6.50
2018-11-04T07:10:22.769Z,6.38
2018-11-04T07:11:22.781Z,6.46
2018-11-04T07:12:22.764Z,6.53
2018-11-04T07:13:22.740Z,6.63
2018-11-04T07:14:22.737Z,6.71
2018-11-04T07:15:22.723Z,6.72
2018-11-04T07:16:22.707Z,6.82
2018-11-04T07:17:22.754Z,6.82
2018-11-04T07:18:22.686Z,6.78
2018-11-04T07:19:22.676Z,6.78
2018-11-04T07:20:22.668Z,6.79
2018-11-04T07:21:22.654Z,6.86
2018-11-04T07:22:22.657Z,6.89
2018-11-04T07:23:22.662Z,6.93
2018-11-04T07:24:22.622Z,7.04
2018-11-04T07:25:22.662Z,7.14
2018-11-04T07:26:22.606Z,7.00
2018-11-04T07:27:22.608Z,7.05
2018-11-04T07:28:22.588Z,7.24
2018-11-04T07:29:22.597Z,7.23
2018-11-04T07:30:22.558Z,7.11
2018-11-04T07:31:22.551Z,7.05
2018-11-04T07:32:22.554Z,6.96
2018-11-04T07:33:22.528Z,6.91
2018-11-04T07:34:22.520Z,6.82
2018-11-04T07:35:22.545Z,6.71
2018-11-04T07:36:22.494Z,6.65
2018-11-04T07:37:22.502Z,6.53
2018-11-04T07:38:22.472Z,6.58
2018-11-04T07:39:22.464Z,6.53
2018-11-04T07:40:22.469Z,6.50
2018-11-04T07:41:22.495Z,6.51
2018-11-04T07:42:22.447Z,6.51
2018-11-04T07:43:22.418Z,6.57
2018-11-04T07:44:22.455Z,6.61
2018-11-04T07:45:22.404Z,6.53
2018-11-04T07:46:22.392Z,6.51
2018-11-04T07:47:22.439Z,6.71
2018-11-04T07:48:22.364Z,6.87
2018-11-04T07:49:22.358Z,7.04
2018-11-04T07:50:22.366Z,7.11
2018-11-04T07:51:22.389Z,7.21
2018-11-04T07:52:22.335Z,7.26
2018-11-04T07:53:22.355Z,7.26
2018-11-04T07:54:22.301Z,7.29
2018-11-04T07:55:22.290Z,7.47
2018-11-04T07:56:22.292Z,7.47
2018-11-04T07:57:22.293Z,7.50
2018-11-04T07:58:22.259Z,7.42
2018-11-04T07:59:22.272Z,7.44
2018-11-04T08:00:22.237Z,7.55
2018-11-04T08:01:22.227Z,7.67
2018-11-04T08:02:22.219Z,7.62
2018-11-04T08:03:22.266Z,7.48
2018-11-04T08:04:22.260Z,7.45
2018-11-04T08:05:22.201Z,7.26
2018-11-04T08:06:22.175Z,7.26
2018-11-04T08:07:22.161Z,7.26
2018-11-04T08:08:22.175Z,7.29
2018-11-04T08:09:22.143Z,7.37
2018-11-04T08:10:22.132Z,7.47
2018-11-04T08:11:22.184Z,7.52
2018-11-04T08:12:22.110Z,7.74
2018-11-04T08:13:22.160Z,7.82
2018-11-04T08:14:22.088Z,7.95
2018-11-04T08:15:22.078Z,7.91
2018-11-04T08:16:22.068Z,7.96
2018-11-04T08:17:22.092Z,7.91
2018-11-04T08:18:22.065Z,8.00
2018-11-04T08:19:22.035Z,8.17
2018-11-04T08:20:22.025Z,8.31
2018-11-04T08:21:22.131Z,8.43
2018-11-04T08:22:22.002Z,8.58
2018-11-04T08:23:22.051Z,8.85
2018-11-04T08:24:21.981Z,9.03
2018-11-04T08:25:21.971Z,9.41
2018-11-04T08:26:21.965Z,9.45
2018-11-04T08:27:21.949Z,9.68
2018-11-04T08:28:21.957Z,9.68
2018-11-04T08:29:21.982Z,9.60
2018-11-04T08:30:21.932Z,9.45
2018-11-04T08:31:21.916Z,9.34
2018-11-04T08:32:21.972Z,9.37
2018-11-04T08:33:21.934Z,9.44
2018-11-04T08:34:21.874Z,9.49
2018-11-04T08:35:21.888Z,9.65
2018-11-04T08:36:21.856Z,9.74
2018-11-04T08:37:21.844Z,9.68
2018-11-04T08:38:21.846Z,9.73
2018-11-04T08:39:21.820Z,9.52
2018-11-04T08:40:21.939Z,9.42
2018-11-04T08:41:21.840Z,9.40
2018-11-04T08:42:21.802Z,9.35
2018-11-04T08:43:21.794Z,9.50
2018-11-04T08:44:21.768Z,9.62
2018-11-04T08:45:21.758Z,9.53
2018-11-04T08:46:21.747Z,9.59
2018-11-04T08:47:21.772Z,9.73
2018-11-04T08:48:21.740Z,9.70
2018-11-04T08:49:21.717Z,9.70
2018-11-04T08:50:21.703Z,9.71
2018-11-04T08:51:21.696Z,9.63
2018-11-04T08:52:21.688Z,9.56
2018-11-04T08:53:21.719Z,9.50
2018-11-04T08:54:21.667Z,9.45
2018-11-04T08:55:21.651Z,9.32
2018-11-04T08:56:21.639Z,9.34
2018-11-04T08:57:21.628Z,9.20
2018-11-04T08:58:21.639Z,9.17
2018-11-04T08:59:21.608Z,9.15
2018-11-04T09:00:21.603Z,9.19
2018-11-04T09:01:21.587Z,9.23
2018-11-04T09:02:21.579Z,9.16
2018-11-04T09:03:21.583Z,9.08
2018-11-04T09:04:21.594Z,9.15
2018-11-04T09:05:21.554Z,9.04
2018-11-04T09:06:21.542Z,9.03
2018-11-04T09:07:21.529Z,9.13
2018-11-04T09:08:21.525Z,9.15
2018-11-04T09:09:21.502Z,9.10
2018-11-04T09:10:21.530Z,9.32
2018-11-04T09:11:21.481Z,9.32
2018-11-04T09:12:21.469Z,9.26
2018-11-04T09:13:21.476Z,9.31
2018-11-04T09:14:21.530Z,9.45
2018-11-04T09:15:21.436Z,9.70
2018-11-04T09:16:21.461Z,9.99
2018-11-04T09:17:21.414Z,10.31
2018-11-04T09:18:21.404Z,10.66
2018-11-04T09:19:21.406Z,11.06
2018-11-04T09:20:21.383Z,11.51
2018-11-04T09:21:21.373Z,11.85
2018-11-04T09:22:21.519Z,12.26
2018-11-04T09:23:21.353Z,11.93
2018-11-04T09:24:21.353Z,12.23
2018-11-04T09:25:21.329Z,12.70
2018-11-04T09:26:21.319Z,13.04
2018-11-04T09:27:21.308Z,13.22
2018-11-04T09:28:21.330Z,13.17
2018-11-04T09:29:21.398Z,13.12
2018-11-04T09:30:21.278Z,12.91
2018-11-04T09:31:21.265Z,13.09
2018-11-04T09:32:21.256Z,13.53
2018-11-04T09:33:21.244Z,13.41
2018-11-04T09:34:21.286Z,13.63
2018-11-04T09:35:21.374Z,14.44
2018-11-04T09:36:21.296Z,15.00
2018-11-04T09:37:21.205Z,15.03
2018-11-04T09:38:21.189Z,15.60
2018-11-04T09:39:21.194Z,15.96
2018-11-04T09:40:21.206Z,16.30
2018-11-04T09:41:21.158Z,16.78
2018-11-04T09:42:21.150Z,16.08
2018-11-04T09:43:21.139Z,14.93
2018-11-04T09:44:21.146Z,14.86
2018-11-04T09:45:21.116Z,15.28
2018-11-04T09:46:21.131Z,15.91
2018-11-04T09:47:21.097Z,16.11
2018-11-04T09:48:21.082Z,16.48
2018-11-04T09:49:21.100Z,15.96
2018-11-04T09:50:21.065Z,15.62
2018-11-04T09:51:21.056Z,15.25
2018-11-04T09:52:21.055Z,14.98
2018-11-04T09:53:21.061Z,14.97
2018-11-04T09:54:21.034Z,15.05
2018-11-04T09:55:21.006Z,15.01
2018-11-04T09:56:21.010Z,15.05
2018-11-04T09:57:20.985Z,14.94
2018-11-04T09:58:20.977Z,15.25
2018-11-04T09:59:20.992Z,15.28
2018-11-04T10:00:20.978Z,15.49
2018-11-04T10:01:20.944Z,15.52
2018-11-04T10:02:20.931Z,15.81
2018-11-04T10:03:20.935Z,15.60
2018-11-04T10:04:20.923Z,15.78
2018-11-04T10:05:20.902Z,15.85
2018-11-04T10:06:20.903Z,16.10
2018-11-04T10:07:20.878Z,15.96
2018-11-04T10:08:20.870Z,16.06
2018-11-04T10:09:20.874Z,15.99
2018-11-04T10:10:20.843Z,16.08
2018-11-04T10:11:20.837Z,15.38
2018-11-04T10:12:20.850Z,15.13
2018-11-04T10:13:20.886Z,15.31
2018-11-04T10:14:20.806Z,15.37
2018-11-04T10:15:20.803Z,15.05
2018-11-04T10:16:20.840Z,15.19
2018-11-04T10:17:20.767Z,15.58
2018-11-04T10:18:20.755Z,15.58
2018-11-04T10:19:21.108Z,15.96
2018-11-04T10:20:20.881Z,16.18
2018-11-04T10:21:20.728Z,16.45
2018-11-04T10:22:20.714Z,16.34
2018-11-04T10:23:20.704Z,16.17
2018-11-04T10:24:20.697Z,16.17
2018-11-04T10:25:20.715Z,16.30
2018-11-04T10:26:20.691Z,16.48
2018-11-04T10:27:20.697Z,16.72
2018-11-04T10:28:20.696Z,16.82
2018-11-04T10:29:20.641Z,16.44
2018-11-04T10:30:20.727Z,16.51
2018-11-04T10:31:20.622Z,16.41
2018-11-04T10:32:20.608Z,15.91
2018-11-04T10:33:20.609Z,16.06
2018-11-04T10:34:20.678Z,16.16
2018-11-04T10:35:20.612Z,16.01
2018-11-04T10:36:20.573Z,15.73
2018-11-04T10:37:20.589Z,15.88
2018-11-04T10:38:20.557Z,16.10
2018-11-04T10:39:20.546Z,15.71
2018-11-04T10:40:20.540Z,15.95
2018-11-04T10:41:20.571Z,16.16
2018-11-04T10:42:20.575Z,16.08
2018-11-04T10:43:20.486Z,15.68
2018-11-04T10:44:20.489Z,14.97
2018-11-04T10:45:20.483Z,14.74
2018-11-04T10:46:20.512Z,14.52
2018-11-04T10:47:20.593Z,14.71
2018-11-04T10:48:20.444Z,14.41
2018-11-04T10:49:20.501Z,14.26
2018-11-04T10:50:20.438Z,14.06
2018-11-04T10:51:20.420Z,14.02
2018-11-04T10:52:20.408Z,13.90
2018-11-04T10:53:20.396Z,13.63
2018-11-04T10:54:20.386Z,13.61
2018-11-04T10:55:20.391Z,13.80
2018-11-04T10:56:20.421Z,13.69
2018-11-04T10:57:20.349Z,13.73
2018-11-04T10:58:20.321Z,13.71
2018-11-04T10:59:20.321Z,13.57
2018-11-04T11:00:20.325Z,13.59
2018-11-04T11:01:20.290Z,13.62
2018-11-04T11:02:20.280Z,13.57
2018-11-04T11:03:20.278Z,13.32
2018-11-04T11:04:20.289Z,13.38
2018-11-04T11:05:20.265Z,13.29
2018-11-04T11:06:20.242Z,13.21
2018-11-04T11:07:20.308Z,13.53
2018-11-04T11:08:20.220Z,13.51
2018-11-04T11:09:20.209Z,13.69
2018-11-04T11:10:20.233Z,13.79
2018-11-04T11:11:20.196Z,13.91
2018-11-04T11:12:20.174Z,13.96
2018-11-04T11:13:20.164Z,14.39
2018-11-04T11:14:20.154Z,14.52
2018-11-04T11:15:20.155Z,14.63
2018-11-04T11:16:20.133Z,14.69
2018-11-04T11:17:20.152Z,14.72
2018-11-04T11:18:20.112Z,14.66
2018-11-04T11:19:20.101Z,14.61
2018-11-04T11:20:20.110Z,14.46
2018-11-04T11:21:20.080Z,14.01
2018-11-04T11:22:20.110Z,13.71
2018-11-04T11:23:20.193Z,13.59
2018-11-04T11:24:20.579Z,13.57
2018-11-04T11:25:21.046Z,13.41
2018-11-04T11:26:20.040Z,13.51
2018-11-04T11:27:20.014Z,13.47
2018-11-04T11:28:20.002Z,13.17
2018-11-04T11:29:19.994Z,13.10
2018-11-04T11:30:20.091Z,12.95
2018-11-04T11:31:19.982Z,12.94
2018-11-04T11:32:19.959Z,12.87
2018-11-04T11:33:19.949Z,12.87
2018-11-04T11:34:19.936Z,12.99
2018-11-04T11:35:19.927Z,12.88
2018-11-04T11:36:19.939Z,12.91
2018-11-04T11:37:19.963Z,13.09
2018-11-04T11:38:19.895Z,13.19
2018-11-04T11:39:19.886Z,13.27
2018-11-04T11:40:19.872Z,13.21
2018-11-04T11:41:19.873Z,13.29
2018-11-04T11:42:19.859Z,13.39
2018-11-04T11:43:19.848Z,13.46
2018-11-04T11:44:19.827Z,13.59
2018-11-04T11:45:19.816Z,13.63
2018-11-04T11:46:19.822Z,13.62
2018-11-04T11:47:19.797Z,13.69
2018-11-04T11:48:19.784Z,13.72
2018-11-04T11:49:19.797Z,13.88
2018-11-04T11:50:19.762Z,14.08
2018-11-04T11:51:19.764Z,13.98
2018-11-04T11:52:19.813Z,14.08
2018-11-04T11:53:19.730Z,14.17
2018-11-04T11:54:19.720Z,14.17
2018-11-04T11:55:19.724Z,14.04
2018-11-04T11:56:19.710Z,14.21
2018-11-04T11:57:19.689Z,14.29
2018-11-04T11:58:19.679Z,14.19
2018-11-04T11:59:19.667Z,14.24
2018-11-04T12:00:19.652Z,14.13
2018-11-04T12:01:19.659Z,14.12
2018-11-04T12:02:19.725Z,13.94
2018-11-04T12:03:19.622Z,13.80
2018-11-04T12:04:19.633Z,13.76
2018-11-04T12:05:19.629Z,13.83
2018-11-04T12:06:19.601Z,13.87
2018-11-04T12:07:19.575Z,13.91
2018-11-04T12:08:19.565Z,13.91
2018-11-04T12:09:19.558Z,13.88
2018-11-04T12:10:19.549Z,13.88
2018-11-04T12:11:19.547Z,13.94
2018-11-04T12:12:19.532Z,13.91
2018-11-04T12:13:19.520Z,13.90
2018-11-04T12:14:19.502Z,13.94
2018-11-04T12:15:19.492Z,14.02
2018-11-04T12:16:19.494Z,14.02
2018-11-04T12:17:19.470Z,13.98
2018-11-04T12:18:19.458Z,13.91
2018-11-04T12:19:19.466Z,13.88
2018-11-04T12:20:19.439Z,13.87
2018-11-04T12:21:19.446Z,13.80
2018-11-04T12:22:19.418Z,13.80
2018-11-04T12:23:19.405Z,13.83
2018-11-04T12:24:19.392Z,13.90
2018-11-04T12:25:19.403Z,13.75
2018-11-04T12:26:19.395Z,13.79
2018-11-04T12:27:19.418Z,13.66
2018-11-04T12:28:19.367Z,13.81
2018-11-04T12:29:19.359Z,13.73
2018-11-04T12:30:19.337Z,13.71
2018-11-04T12:31:19.338Z,13.71
2018-11-04T12:32:19.331Z,13.76
2018-11-04T12:33:19.299Z,13.69
2018-11-04T12:34:19.292Z,13.71
2018-11-04T12:35:19.376Z,13.79
2018-11-04T12:36:19.309Z,13.75
2018-11-04T12:37:19.254Z,13.68
2018-11-04T12:38:19.245Z,13.59
2018-11-04T12:39:19.231Z,13.57
2018-11-04T12:40:19.220Z,13.54
2018-11-04T12:41:19.261Z,13.39
2018-11-04T12:42:19.199Z,13.38
2018-11-04T12:43:19.189Z,13.46
2018-11-04T12:44:19.177Z,13.43
2018-11-04T12:45:19.167Z,13.50
2018-11-04T12:46:19.171Z,13.54
2018-11-04T12:47:19.171Z,13.53
2018-11-04T12:48:19.134Z,13.54
2018-11-04T12:49:19.122Z,13.63
2018-11-04T12:50:19.111Z,13.61
2018-11-04T12:51:19.114Z,13.71
2018-11-04T12:52:19.223Z,13.62
2018-11-04T12:53:19.104Z,13.61
2018-11-04T12:54:19.072Z,13.66
2018-11-04T12:55:19.057Z,13.66
2018-11-04T12:56:19.064Z,13.51
2018-11-04T12:57:19.035Z,13.57
2018-11-04T12:58:19.029Z,13.55
2018-11-04T12:59:19.046Z,13.61
2018-11-04T13:00:19.073Z,13.53
2018-11-04T13:01:18.995Z,13.44
2018-11-04T13:02:18.992Z,13.51
2018-11-04T13:03:18.985Z,13.55
2018-11-04T13:04:18.958Z,13.41
2018-11-04T13:05:18.977Z,13.41
2018-11-04T13:06:18.961Z,13.35
2018-11-04T13:07:18.941Z,13.31
2018-11-04T13:08:18.914Z,13.53
2018-11-04T13:09:18.905Z,13.55
2018-11-04T13:10:19.092Z,13.51